sensor_id;sensor_type;location;lat;lon;timestamp;temperature;humidity
1766;DHT22;880;52.452;8.656;2023-04-25T00:02:24;7.50;99.90
1766;DHT22;880;52.452;8.656;2023-04-25T00:04:51;7.50;99.90
1766;DHT22;880;52.452;8.656;2023-04-25T00:07:19;7.50;99.90
1766;DHT22;880;52.452;8.656;2023-04-25T00:09:46;7.50;99.90
1766;DHT22;880;52.452;8.656;2023-04-25T00:12:13;7.50;99.90
1766;DHT22;880;52.452;8.656;2023-04-25T00:14:40;7.50;99.90
1766;DHT22;880;52.452;8.656;2023-04-25T00:17:07;7.50;99.90
1766;DHT22;880;52.452;8.656;2023-04-25T00:19:34;7.50;99.90
1766;DHT22;880;52.452;8.656;2023-04-25T00:22:02;7.50;99.90
1766;DHT22;880;52.452;8.656;2023-04-25T00:24:29;7.40;99.90
1766;DHT22;880;52.452;8.656;2023-04-25T00:26:56;7.50;99.90
1766;DHT22;880;52.452;8.656;2023-04-25T00:29:23;7.50;99.90
1766;DHT22;880;52.452;8.656;2023-04-25T00:31:50;7.40;99.90
1766;DHT22;880;52.452;8.656;2023-04-25T00:34:17;7.40;99.90
1766;DHT22;880;52.452;8.656;2023-04-25T00:36:44;7.30;99.90
1766;DHT22;880;52.452;8.656;2023-04-25T00:39:11;7.40;99.90
1766;DHT22;880;52.452;8.656;2023-04-25T00:41:39;7.40;99.90
1766;DHT22;880;52.452;8.656;2023-04-25T00:44:08;7.30;99.90
1766;DHT22;880;52.452;8.656;2023-04-25T00:46:38;7.30;99.90
1766;DHT22;880;52.452;8.656;2023-04-25T00:49:06;7.30;99.90
1766;DHT22;880;52.452;8.656;2023-04-25T00:51:33;7.30;99.90
1766;DHT22;880;52.452;8.656;2023-04-25T00:54:01;7.40;99.90
1766;DHT22;880;52.452;8.656;2023-04-25T00:56:28;7.60;99.90
1766;DHT22;880;52.452;8.656;2023-04-25T00:58:55;7.60;99.90
1766;DHT22;880;52.452;8.656;2023-04-25T01:01:23;7.60;99.90
1766;DHT22;880;52.452;8.656;2023-04-25T01:03:50;7.70;99.90
1766;DHT22;880;52.452;8.656;2023-04-25T01:06:18;7.70;99.90
1766;DHT22;880;52.452;8.656;2023-04-25T01:08:45;7.80;99.90
1766;DHT22;880;52.452;8.656;2023-04-25T01:11:12;7.60;99.90
1766;DHT22;880;52.452;8.656;2023-04-25T01:13:39;7.60;99.90
1766;DHT22;880;52.452;8.656;2023-04-25T01:16:06;7.60;99.90
1766;DHT22;880;52.452;8.656;2023-04-25T01:18:33;7.60;99.90
1766;DHT22;880;52.452;8.656;2023-04-25T01:21:10;7.60;99.90
1766;DHT22;880;52.452;8.656;2023-04-25T01:23:41;7.70;99.90
1766;DHT22;880;52.452;8.656;2023-04-25T01:26:10;7.70;99.90
1766;DHT22;880;52.452;8.656;2023-04-25T01:28:38;7.80;99.90
1766;DHT22;880;52.452;8.656;2023-04-25T01:31:11;7.80;99.90
1766;DHT22;880;52.452;8.656;2023-04-25T01:33:38;7.80;99.90
1766;DHT22;880;52.452;8.656;2023-04-25T01:36:06;7.70;99.90
1766;DHT22;880;52.452;8.656;2023-04-25T01:38:34;7.50;99.90
1766;DHT22;880;52.452;8.656;2023-04-25T01:41:02;7.50;99.90
1766;DHT22;880;52.452;8.656;2023-04-25T01:43:29;7.40;99.90
1766;DHT22;880;52.452;8.656;2023-04-25T01:45:57;7.50;99.90
1766;DHT22;880;52.452;8.656;2023-04-25T01:48:24;7.50;99.90
1766;DHT22;880;52.452;8.656;2023-04-25T01:50:52;7.50;99.90
1766;DHT22;880;52.452;8.656;2023-04-25T01:53:19;7.40;99.90
1766;DHT22;880;52.452;8.656;2023-04-25T01:55:46;7.40;99.90
1766;DHT22;880;52.452;8.656;2023-04-25T01:58:16;7.30;99.90
1766;DHT22;880;52.452;8.656;2023-04-25T02:01:02;7.30;99.90
1766;DHT22;880;52.452;8.656;2023-04-25T02:03:36;7.30;99.90
1766;DHT22;880;52.452;8.656;2023-04-25T02:06:07;7.40;99.90
1766;DHT22;880;52.452;8.656;2023-04-25T02:08:37;7.40;99.90
1766;DHT22;880;52.452;8.656;2023-04-25T02:11:04;7.50;99.90
1766;DHT22;880;52.452;8.656;2023-04-25T02:13:39;7.50;99.90
1766;DHT22;880;52.452;8.656;2023-04-25T02:16:31;7.50;99.90
1766;DHT22;880;52.452;8.656;2023-04-25T02:19:00;7.30;99.90
1766;DHT22;880;52.452;8.656;2023-04-25T02:21:29;7.30;99.90
1766;DHT22;880;52.452;8.656;2023-04-25T02:23:57;7.30;99.90
1766;DHT22;880;52.452;8.656;2023-04-25T02:26:27;7.20;99.90
1766;DHT22;880;52.452;8.656;2023-04-25T02:28:54;7.20;99.90
1766;DHT22;880;52.452;8.656;2023-04-25T02:31:21;7.20;99.90
1766;DHT22;880;52.452;8.656;2023-04-25T02:33:50;7.10;99.90
1766;DHT22;880;52.452;8.656;2023-04-25T02:36:18;7.10;99.90
1766;DHT22;880;52.452;8.656;2023-04-25T02:38:45;7.20;99.90
1766;DHT22;880;52.452;8.656;2023-04-25T02:41:12;7.00;99.90
1766;DHT22;880;52.452;8.656;2023-04-25T02:43:39;7.00;99.90
1766;DHT22;880;52.452;8.656;2023-04-25T02:46:06;7.00;99.90
1766;DHT22;880;52.452;8.656;2023-04-25T02:48:33;7.00;99.90
1766;DHT22;880;52.452;8.656;2023-04-25T02:51:00;7.00;99.90
1766;DHT22;880;52.452;8.656;2023-04-25T02:53:28;6.90;99.90
1766;DHT22;880;52.452;8.656;2023-04-25T02:55:55;6.90;99.90
1766;DHT22;880;52.452;8.656;2023-04-25T02:58:24;7.00;99.90
1766;DHT22;880;52.452;8.656;2023-04-25T03:00:53;7.00;99.90
1766;DHT22;880;52.452;8.656;2023-04-25T03:03:20;7.10;99.90
1766;DHT22;880;52.452;8.656;2023-04-25T03:05:52;7.10;99.90
1766;DHT22;880;52.452;8.656;2023-04-25T03:08:26;7.10;99.90
1766;DHT22;880;52.452;8.656;2023-04-25T03:10:59;7.00;99.90
1766;DHT22;880;52.452;8.656;2023-04-25T03:13:27;6.90;99.90
1766;DHT22;880;52.452;8.656;2023-04-25T03:15:56;6.90;99.90
1766;DHT22;880;52.452;8.656;2023-04-25T03:18:23;7.00;99.90
1766;DHT22;880;52.452;8.656;2023-04-25T03:20:50;6.90;99.90
1766;DHT22;880;52.452;8.656;2023-04-25T03:23:17;6.80;99.90
1766;DHT22;880;52.452;8.656;2023-04-25T03:25:44;6.80;99.90
1766;DHT22;880;52.452;8.656;2023-04-25T03:28:12;6.80;99.90
1766;DHT22;880;52.452;8.656;2023-04-25T03:30:39;6.70;99.90
1766;DHT22;880;52.452;8.656;2023-04-25T03:33:06;6.80;99.90
1766;DHT22;880;52.452;8.656;2023-04-25T03:35:33;6.70;99.90
1766;DHT22;880;52.452;8.656;2023-04-25T03:38:00;6.70;99.90
1766;DHT22;880;52.452;8.656;2023-04-25T03:40:32;6.70;99.90
1766;DHT22;880;52.452;8.656;2023-04-25T03:43:17;6.70;99.90
1766;DHT22;880;52.452;8.656;2023-04-25T03:45:50;6.70;99.90
1766;DHT22;880;52.452;8.656;2023-04-25T03:48:20;6.70;99.90
1766;DHT22;880;52.452;8.656;2023-04-25T03:50:54;6.70;99.90
1766;DHT22;880;52.452;8.656;2023-04-25T03:53:21;6.60;99.90
1766;DHT22;880;52.452;8.656;2023-04-25T03:56:07;6.60;99.90
1766;DHT22;880;52.452;8.656;2023-04-25T03:58:36;6.60;99.90
1766;DHT22;880;52.452;8.656;2023-04-25T04:01:05;6.50;99.90
1766;DHT22;880;52.452;8.656;2023-04-25T04:03:36;6.50;99.90
1766;DHT22;880;52.452;8.656;2023-04-25T04:06:05;6.50;99.90
1766;DHT22;880;52.452;8.656;2023-04-25T04:08:36;6.50;99.90
1766;DHT22;880;52.452;8.656;2023-04-25T04:11:03;6.40;99.90
1766;DHT22;880;52.452;8.656;2023-04-25T04:13:31;6.40;99.90
1766;DHT22;880;52.452;8.656;2023-04-25T04:15:59;6.40;99.90
1766;DHT22;880;52.452;8.656;2023-04-25T04:18:26;6.40;99.90
1766;DHT22;880;52.452;8.656;2023-04-25T04:20:55;6.40;99.90
1766;DHT22;880;52.452;8.656;2023-04-25T04:23:24;6.40;99.90
1766;DHT22;880;52.452;8.656;2023-04-25T04:25:55;6.40;99.90
1766;DHT22;880;52.452;8.656;2023-04-25T04:28:25;6.40;99.90
1766;DHT22;880;52.452;8.656;2023-04-25T04:31:00;6.40;99.90
1766;DHT22;880;52.452;8.656;2023-04-25T04:33:29;6.40;99.90
1766;DHT22;880;52.452;8.656;2023-04-25T04:36:01;6.50;99.90
1766;DHT22;880;52.452;8.656;2023-04-25T04:38:29;6.50;99.90
1766;DHT22;880;52.452;8.656;2023-04-25T04:41:00;6.50;99.90
1766;DHT22;880;52.452;8.656;2023-04-25T04:43:37;6.50;99.90
1766;DHT22;880;52.452;8.656;2023-04-25T04:46:26;6.50;99.90
1766;DHT22;880;52.452;8.656;2023-04-25T04:49:27;6.40;99.90
1766;DHT22;880;52.452;8.656;2023-04-25T04:52:30;6.40;99.90
1766;DHT22;880;52.452;8.656;2023-04-25T04:55:15;6.40;99.90
1766;DHT22;880;52.452;8.656;2023-04-25T04:57:51;6.40;99.90
1766;DHT22;880;52.452;8.656;2023-04-25T05:00:47;6.40;99.90
1766;DHT22;880;52.452;8.656;2023-04-25T05:03:52;6.50;99.90
1766;DHT22;880;52.452;8.656;2023-04-25T05:06:40;6.50;99.90
1766;DHT22;880;52.452;8.656;2023-04-25T05:09:13;6.50;99.90
1766;DHT22;880;52.452;8.656;2023-04-25T05:12:04;6.50;99.90
1766;DHT22;880;52.452;8.656;2023-04-25T05:14:57;6.50;99.90
1766;DHT22;880;52.452;8.656;2023-04-25T05:17:36;6.50;99.90
1766;DHT22;880;52.452;8.656;2023-04-25T05:20:28;6.60;99.90
1766;DHT22;880;52.452;8.656;2023-04-25T05:23:13;6.60;99.90
1766;DHT22;880;52.452;8.656;2023-04-25T05:25:46;6.60;99.90
1766;DHT22;880;52.452;8.656;2023-04-25T05:28:40;6.60;99.90
1766;DHT22;880;52.452;8.656;2023-04-25T05:31:36;6.60;99.90
1766;DHT22;880;52.452;8.656;2023-04-25T05:34:14;6.70;99.90
1766;DHT22;880;52.452;8.656;2023-04-25T05:36:58;6.70;99.90
1766;DHT22;880;52.452;8.656;2023-04-25T05:39:25;6.70;99.90
1766;DHT22;880;52.452;8.656;2023-04-25T05:42:06;6.70;99.90
1766;DHT22;880;52.452;8.656;2023-04-25T05:44:52;6.60;99.90
1766;DHT22;880;52.452;8.656;2023-04-25T05:47:29;6.60;99.90
1766;DHT22;880;52.452;8.656;2023-04-25T05:50:10;6.60;99.90
1766;DHT22;880;52.452;8.656;2023-04-25T05:52:50;6.60;99.90
1766;DHT22;880;52.452;8.656;2023-04-25T05:55:24;6.70;99.90
1766;DHT22;880;52.452;8.656;2023-04-25T05:57:51;6.90;99.90
1766;DHT22;880;52.452;8.656;2023-04-25T06:00:19;6.90;99.90
1766;DHT22;880;52.452;8.656;2023-04-25T06:02:49;7.00;99.90
1766;DHT22;880;52.452;8.656;2023-04-25T06:05:17;7.00;99.90
1766;DHT22;880;52.452;8.656;2023-04-25T06:07:46;6.90;99.90
1766;DHT22;880;52.452;8.656;2023-04-25T06:10:13;7.00;99.90
1766;DHT22;880;52.452;8.656;2023-04-25T06:12:42;7.10;99.90
1766;DHT22;880;52.452;8.656;2023-04-25T06:15:09;7.00;99.90
1766;DHT22;880;52.452;8.656;2023-04-25T06:17:53;7.00;99.90
1766;DHT22;880;52.452;8.656;2023-04-25T06:20:21;7.00;99.90
1766;DHT22;880;52.452;8.656;2023-04-25T06:22:51;7.00;99.90
1766;DHT22;880;52.452;8.656;2023-04-25T06:25:21;6.90;99.90
1766;DHT22;880;52.452;8.656;2023-04-25T06:27:48;6.90;99.90
1766;DHT22;880;52.452;8.656;2023-04-25T06:30:15;6.80;99.90
1766;DHT22;880;52.452;8.656;2023-04-25T06:32:44;6.80;99.90
1766;DHT22;880;52.452;8.656;2023-04-25T06:35:12;6.80;99.90
1766;DHT22;880;52.452;8.656;2023-04-25T06:37:39;6.90;99.90
1766;DHT22;880;52.452;8.656;2023-04-25T06:40:07;6.80;99.90
1766;DHT22;880;52.452;8.656;2023-04-25T06:42:35;6.90;99.90
1766;DHT22;880;52.452;8.656;2023-04-25T06:45:22;7.00;99.90
1766;DHT22;880;52.452;8.656;2023-04-25T06:47:49;7.20;99.90
1766;DHT22;880;52.452;8.656;2023-04-25T06:50:16;7.30;99.90
1766;DHT22;880;52.452;8.656;2023-04-25T06:52:43;7.20;99.90
1766;DHT22;880;52.452;8.656;2023-04-25T06:55:10;7.20;99.90
1766;DHT22;880;52.452;8.656;2023-04-25T06:58:05;7.30;99.90
1766;DHT22;880;52.452;8.656;2023-04-25T07:00:58;7.40;99.90
1766;DHT22;880;52.452;8.656;2023-04-25T07:03:25;7.50;99.90
1766;DHT22;880;52.452;8.656;2023-04-25T07:05:58;7.70;99.90
1766;DHT22;880;52.452;8.656;2023-04-25T07:08:25;7.80;99.90
1766;DHT22;880;52.452;8.656;2023-04-25T07:10:52;8.10;99.90
1766;DHT22;880;52.452;8.656;2023-04-25T07:13:19;8.20;99.90
1766;DHT22;880;52.452;8.656;2023-04-25T07:15:46;8.30;99.90
1766;DHT22;880;52.452;8.656;2023-04-25T07:18:16;8.40;99.90
1766;DHT22;880;52.452;8.656;2023-04-25T07:20:43;8.40;99.90
1766;DHT22;880;52.452;8.656;2023-04-25T07:23:10;8.40;99.90
1766;DHT22;880;52.452;8.656;2023-04-25T07:25:37;8.30;99.90
1766;DHT22;880;52.452;8.656;2023-04-25T07:28:05;8.40;99.90
1766;DHT22;880;52.452;8.656;2023-04-25T07:30:32;8.40;99.90
1766;DHT22;880;52.452;8.656;2023-04-25T07:33:02;8.30;99.90
1766;DHT22;880;52.452;8.656;2023-04-25T07:35:30;8.50;99.90
1766;DHT22;880;52.452;8.656;2023-04-25T07:37:57;8.60;99.90
1766;DHT22;880;52.452;8.656;2023-04-25T07:40:25;8.60;99.90
1766;DHT22;880;52.452;8.656;2023-04-25T07:42:57;8.90;99.90
1766;DHT22;880;52.452;8.656;2023-04-25T07:45:47;9.20;99.90
1766;DHT22;880;52.452;8.656;2023-04-25T07:48:19;9.20;99.90
1766;DHT22;880;52.452;8.656;2023-04-25T07:50:47;9.10;99.90
1766;DHT22;880;52.452;8.656;2023-04-25T07:53:15;9.10;99.90
1766;DHT22;880;52.452;8.656;2023-04-25T07:55:50;9.20;99.90
1766;DHT22;880;52.452;8.656;2023-04-25T07:58:19;9.30;99.90
1766;DHT22;880;52.452;8.656;2023-04-25T08:00:52;9.60;99.90
1766;DHT22;880;52.452;8.656;2023-04-25T08:03:45;10.10;99.90
1766;DHT22;880;52.452;8.656;2023-04-25T08:06:22;10.50;99.90
1766;DHT22;880;52.452;8.656;2023-04-25T08:09:06;10.50;99.90
1766;DHT22;880;52.452;8.656;2023-04-25T08:11:38;10.20;99.90
1766;DHT22;880;52.452;8.656;2023-04-25T08:14:07;9.70;99.90
1766;DHT22;880;52.452;8.656;2023-04-25T08:16:35;9.40;99.90
1766;DHT22;880;52.452;8.656;2023-04-25T08:19:02;9.20;99.90
1766;DHT22;880;52.452;8.656;2023-04-25T08:21:29;9.50;99.90
1766;DHT22;880;52.452;8.656;2023-04-25T08:24:00;10.00;99.90
1766;DHT22;880;52.452;8.656;2023-04-25T08:26:31;10.50;99.90
1766;DHT22;880;52.452;8.656;2023-04-25T08:28:59;10.40;99.90
1766;DHT22;880;52.452;8.656;2023-04-25T08:31:27;10.20;99.90
1766;DHT22;880;52.452;8.656;2023-04-25T08:33:58;10.30;99.90
1766;DHT22;880;52.452;8.656;2023-04-25T08:36:38;10.50;99.90
1766;DHT22;880;52.452;8.656;2023-04-25T08:39:18;10.40;99.90
1766;DHT22;880;52.452;8.656;2023-04-25T08:42:06;10.20;99.90
1766;DHT22;880;52.452;8.656;2023-04-25T08:44:34;10.20;99.90
1766;DHT22;880;52.452;8.656;2023-04-25T08:47:03;10.20;99.90
1766;DHT22;880;52.452;8.656;2023-04-25T08:49:35;10.10;99.90
1766;DHT22;880;52.452;8.656;2023-04-25T08:52:04;9.90;99.90
1766;DHT22;880;52.452;8.656;2023-04-25T08:54:35;9.80;99.90
1766;DHT22;880;52.452;8.656;2023-04-25T08:57:06;9.70;99.90
1766;DHT22;880;52.452;8.656;2023-04-25T08:59:34;9.60;99.90
1766;DHT22;880;52.452;8.656;2023-04-25T09:02:05;9.50;99.90
1766;DHT22;880;52.452;8.656;2023-04-25T09:04:33;9.50;99.90
1766;DHT22;880;52.452;8.656;2023-04-25T09:07:00;9.60;99.90
1766;DHT22;880;52.452;8.656;2023-04-25T09:09:27;9.80;99.90
1766;DHT22;880;52.452;8.656;2023-04-25T09:11:56;9.80;99.90
1766;DHT22;880;52.452;8.656;2023-04-25T09:14:24;9.70;99.90
1766;DHT22;880;52.452;8.656;2023-04-25T09:17:21;9.80;99.90
1766;DHT22;880;52.452;8.656;2023-04-25T09:19:52;10.00;99.90
1766;DHT22;880;52.452;8.656;2023-04-25T09:22:28;10.50;99.90
1766;DHT22;880;52.452;8.656;2023-04-25T09:24:57;11.00;99.90
1766;DHT22;880;52.452;8.656;2023-04-25T09:27:28;11.30;99.90
1766;DHT22;880;52.452;8.656;2023-04-25T09:30:07;11.50;99.90
1766;DHT22;880;52.452;8.656;2023-04-25T09:32:57;11.30;99.90
1766;DHT22;880;52.452;8.656;2023-04-25T09:35:25;11.10;99.90
1766;DHT22;880;52.452;8.656;2023-04-25T09:37:58;11.20;99.90
1766;DHT22;880;52.452;8.656;2023-04-25T09:40:46;11.20;99.90
1766;DHT22;880;52.452;8.656;2023-04-25T09:43:24;11.20;99.90
1766;DHT22;880;52.452;8.656;2023-04-25T09:45:54;11.20;99.90
1766;DHT22;880;52.452;8.656;2023-04-25T09:48:26;11.20;99.90
1766;DHT22;880;52.452;8.656;2023-04-25T09:51:12;11.30;99.90
1766;DHT22;880;52.452;8.656;2023-04-25T09:53:45;11.30;99.90
1766;DHT22;880;52.452;8.656;2023-04-25T09:56:48;11.20;99.90
1766;DHT22;880;52.452;8.656;2023-04-25T09:59:15;11.20;99.90
1766;DHT22;880;52.452;8.656;2023-04-25T10:01:43;11.50;99.90
1766;DHT22;880;52.452;8.656;2023-04-25T10:04:24;11.60;99.90
1766;DHT22;880;52.452;8.656;2023-04-25T10:07:02;11.30;99.90
1766;DHT22;880;52.452;8.656;2023-04-25T10:09:32;11.10;99.90
1766;DHT22;880;52.452;8.656;2023-04-25T10:12:03;10.70;99.90
1766;DHT22;880;52.452;8.656;2023-04-25T10:14:31;10.40;99.90
1766;DHT22;880;52.452;8.656;2023-04-25T10:16:59;10.40;99.90
1766;DHT22;880;52.452;8.656;2023-04-25T10:19:27;10.40;99.90
1766;DHT22;880;52.452;8.656;2023-04-25T10:22:04;10.40;99.90
1766;DHT22;880;52.452;8.656;2023-04-25T10:24:46;10.30;99.90
1766;DHT22;880;52.452;8.656;2023-04-25T10:27:13;10.60;99.90
1766;DHT22;880;52.452;8.656;2023-04-25T10:29:41;10.50;99.90
1766;DHT22;880;52.452;8.656;2023-04-25T10:32:10;10.50;99.90
1766;DHT22;880;52.452;8.656;2023-04-25T10:34:46;10.40;99.90
1766;DHT22;880;52.452;8.656;2023-04-25T10:37:15;10.20;99.90
1766;DHT22;880;52.452;8.656;2023-04-25T10:39:42;10.10;99.90
1766;DHT22;880;52.452;8.656;2023-04-25T10:42:11;9.90;99.90
1766;DHT22;880;52.452;8.656;2023-04-25T10:44:38;10.10;99.90
1766;DHT22;880;52.452;8.656;2023-04-25T10:47:07;10.70;99.90
1766;DHT22;880;52.452;8.656;2023-04-25T10:49:37;11.10;99.90
1766;DHT22;880;52.452;8.656;2023-04-25T10:57:30;11.60;99.90
1766;DHT22;880;52.452;8.656;2023-04-25T11:00:08;11.30;99.90
1766;DHT22;880;52.452;8.656;2023-04-25T11:02:44;11.70;99.90
1766;DHT22;880;52.452;8.656;2023-04-25T11:07:56;12.00;99.90
1766;DHT22;880;52.452;8.656;2023-04-25T11:10:34;11.80;99.90
1766;DHT22;880;52.452;8.656;2023-04-25T11:13:02;11.80;99.90
1766;DHT22;880;52.452;8.656;2023-04-25T11:15:29;11.90;99.90
1766;DHT22;880;52.452;8.656;2023-04-25T11:17:56;12.10;99.90
1766;DHT22;880;52.452;8.656;2023-04-25T11:20:25;12.30;99.90
1766;DHT22;880;52.452;8.656;2023-04-25T11:22:57;12.10;99.90
1766;DHT22;880;52.452;8.656;2023-04-25T11:25:26;11.80;99.90
1766;DHT22;880;52.452;8.656;2023-04-25T11:27:53;11.90;99.90
1766;DHT22;880;52.452;8.656;2023-04-25T11:30:25;11.70;99.90
1766;DHT22;880;52.452;8.656;2023-04-25T11:32:53;11.90;99.90
1766;DHT22;880;52.452;8.656;2023-04-25T11:35:20;11.70;99.90
1766;DHT22;880;52.452;8.656;2023-04-25T11:37:49;11.50;99.90
1766;DHT22;880;52.452;8.656;2023-04-25T11:40:17;11.40;99.90
1766;DHT22;880;52.452;8.656;2023-04-25T11:42:46;11.40;99.90
1766;DHT22;880;52.452;8.656;2023-04-25T11:45:14;12.00;99.90
1766;DHT22;880;52.452;8.656;2023-04-25T11:47:42;12.50;99.90
1766;DHT22;880;52.452;8.656;2023-04-25T11:50:09;12.50;99.90
1766;DHT22;880;52.452;8.656;2023-04-25T11:52:45;12.50;99.90
1766;DHT22;880;52.452;8.656;2023-04-25T11:57:41;12.20;99.90
1766;DHT22;880;52.452;8.656;2023-04-25T12:00:19;11.70;99.90
1766;DHT22;880;52.452;8.656;2023-04-25T12:02:54;11.50;99.90
1766;DHT22;880;52.452;8.656;2023-04-25T12:05:28;11.20;99.90
1766;DHT22;880;52.452;8.656;2023-04-25T12:08:10;10.90;99.90
1766;DHT22;880;52.452;8.656;2023-04-25T12:10:39;10.90;99.90
1766;DHT22;880;52.452;8.656;2023-04-25T12:13:25;10.90;99.90
1766;DHT22;880;52.452;8.656;2023-04-25T12:15:56;11.20;99.90
1766;DHT22;880;52.452;8.656;2023-04-25T12:18:24;11.20;99.90
1766;DHT22;880;52.452;8.656;2023-04-25T12:20:54;11.10;99.90
1766;DHT22;880;52.452;8.656;2023-04-25T12:23:26;11.30;99.90
1766;DHT22;880;52.452;8.656;2023-04-25T12:25:55;11.60;99.90
1766;DHT22;880;52.452;8.656;2023-04-25T12:28:24;11.90;99.90
1766;DHT22;880;52.452;8.656;2023-04-25T12:33:36;12.10;99.90
1766;DHT22;880;52.452;8.656;2023-04-25T12:36:05;12.10;99.90
1766;DHT22;880;52.452;8.656;2023-04-25T12:38:41;12.10;99.90
1766;DHT22;880;52.452;8.656;2023-04-25T12:41:09;12.10;99.90
1766;DHT22;880;52.452;8.656;2023-04-25T12:43:36;11.60;99.90
1766;DHT22;880;52.452;8.656;2023-04-25T12:46:03;11.30;99.90
1766;DHT22;880;52.452;8.656;2023-04-25T12:48:30;11.50;99.90
1766;DHT22;880;52.452;8.656;2023-04-25T12:50:57;12.00;99.90
1766;DHT22;880;52.452;8.656;2023-04-25T12:53:24;12.30;99.90
1766;DHT22;880;52.452;8.656;2023-04-25T12:55:51;12.30;99.90
1766;DHT22;880;52.452;8.656;2023-04-25T12:58:19;11.80;99.90
1766;DHT22;880;52.452;8.656;2023-04-25T13:00:46;11.30;99.90
1766;DHT22;880;52.452;8.656;2023-04-25T13:03:14;11.00;99.90
1766;DHT22;880;52.452;8.656;2023-04-25T13:05:42;10.70;99.90
1766;DHT22;880;52.452;8.656;2023-04-25T13:08:09;10.40;99.90
1766;DHT22;880;52.452;8.656;2023-04-25T13:10:36;10.40;99.90
1766;DHT22;880;52.452;8.656;2023-04-25T13:13:05;10.50;99.90
1766;DHT22;880;52.452;8.656;2023-04-25T13:15:32;10.70;99.90
1766;DHT22;880;52.452;8.656;2023-04-25T13:17:59;10.60;99.90
1766;DHT22;880;52.452;8.656;2023-04-25T13:20:26;10.30;99.90
1766;DHT22;880;52.452;8.656;2023-04-25T13:22:53;10.30;99.90
1766;DHT22;880;52.452;8.656;2023-04-25T13:25:20;10.40;99.90
1766;DHT22;880;52.452;8.656;2023-04-25T13:27:48;10.40;99.90
1766;DHT22;880;52.452;8.656;2023-04-25T13:30:15;10.20;99.90
1766;DHT22;880;52.452;8.656;2023-04-25T13:32:42;10.30;99.90
1766;DHT22;880;52.452;8.656;2023-04-25T13:35:11;10.30;99.90
1766;DHT22;880;52.452;8.656;2023-04-25T13:37:40;10.30;99.90
1766;DHT22;880;52.452;8.656;2023-04-25T13:40:09;10.30;99.90
1766;DHT22;880;52.452;8.656;2023-04-25T13:42:38;10.40;99.90
1766;DHT22;880;52.452;8.656;2023-04-25T13:45:06;10.60;99.90
1766;DHT22;880;52.452;8.656;2023-04-25T13:47:34;10.50;99.90
1766;DHT22;880;52.452;8.656;2023-04-25T13:50:02;10.40;99.90
1766;DHT22;880;52.452;8.656;2023-04-25T13:52:30;10.30;99.90
1766;DHT22;880;52.452;8.656;2023-04-25T13:54:57;10.30;99.90
1766;DHT22;880;52.452;8.656;2023-04-25T13:57:24;10.50;99.90
1766;DHT22;880;52.452;8.656;2023-04-25T13:59:52;10.80;99.90
1766;DHT22;880;52.452;8.656;2023-04-25T14:02:20;11.00;99.90
1766;DHT22;880;52.452;8.656;2023-04-25T14:04:47;11.10;99.90
1766;DHT22;880;52.452;8.656;2023-04-25T14:07:14;11.20;99.90
1766;DHT22;880;52.452;8.656;2023-04-25T14:09:45;11.40;99.90
1766;DHT22;880;52.452;8.656;2023-04-25T14:12:12;11.60;99.90
1766;DHT22;880;52.452;8.656;2023-04-25T14:14:39;11.80;99.90
1766;DHT22;880;52.452;8.656;2023-04-25T14:17:06;11.90;99.90
1766;DHT22;880;52.452;8.656;2023-04-25T14:19:34;11.80;99.90
1766;DHT22;880;52.452;8.656;2023-04-25T14:22:01;11.80;99.90
1766;DHT22;880;52.452;8.656;2023-04-25T14:24:28;11.70;99.90
1766;DHT22;880;52.452;8.656;2023-04-25T14:26:55;11.50;99.90
1766;DHT22;880;52.452;8.656;2023-04-25T14:29:22;10.70;99.90
1766;DHT22;880;52.452;8.656;2023-04-25T14:31:49;9.70;99.90
1766;DHT22;880;52.452;8.656;2023-04-25T14:34:17;8.90;99.90
1766;DHT22;880;52.452;8.656;2023-04-25T14:36:44;8.60;99.90
1766;DHT22;880;52.452;8.656;2023-04-25T14:39:11;8.50;99.90
1766;DHT22;880;52.452;8.656;2023-04-25T14:41:39;8.50;99.90
1766;DHT22;880;52.452;8.656;2023-04-25T14:44:06;8.50;99.90
1766;DHT22;880;52.452;8.656;2023-04-25T14:46:33;8.60;99.90
1766;DHT22;880;52.452;8.656;2023-04-25T14:49:01;8.60;99.90
1766;DHT22;880;52.452;8.656;2023-04-25T14:51:29;8.70;99.90
1766;DHT22;880;52.452;8.656;2023-04-25T14:53:57;8.90;99.90
1766;DHT22;880;52.452;8.656;2023-04-25T14:56:24;9.10;99.90
1766;DHT22;880;52.452;8.656;2023-04-25T14:58:52;9.30;99.90
1766;DHT22;880;52.452;8.656;2023-04-25T15:01:18;9.60;99.90
1766;DHT22;880;52.452;8.656;2023-04-25T15:03:47;9.80;99.90
1766;DHT22;880;52.452;8.656;2023-04-25T15:06:15;9.90;99.90
1766;DHT22;880;52.452;8.656;2023-04-25T15:08:42;10.10;99.90
1766;DHT22;880;52.452;8.656;2023-04-25T15:11:09;10.20;99.90
1766;DHT22;880;52.452;8.656;2023-04-25T15:13:37;10.30;99.90
1766;DHT22;880;52.452;8.656;2023-04-25T15:16:04;10.40;99.90
1766;DHT22;880;52.452;8.656;2023-04-25T15:18:32;10.40;99.90
1766;DHT22;880;52.452;8.656;2023-04-25T15:20:59;10.30;99.90
1766;DHT22;880;52.452;8.656;2023-04-25T15:23:26;10.10;99.90
1766;DHT22;880;52.452;8.656;2023-04-25T15:25:55;9.90;99.90
1766;DHT22;880;52.452;8.656;2023-04-25T15:28:22;9.80;99.90
1766;DHT22;880;52.452;8.656;2023-04-25T15:30:49;9.70;99.90
1766;DHT22;880;52.452;8.656;2023-04-25T15:33:16;9.50;99.90
1766;DHT22;880;52.452;8.656;2023-04-25T15:35:44;9.50;99.90
1766;DHT22;880;52.452;8.656;2023-04-25T15:38:11;9.60;99.90
1766;DHT22;880;52.452;8.656;2023-04-25T15:40:38;9.50;99.90
1766;DHT22;880;52.452;8.656;2023-04-25T15:43:05;9.30;99.90
1766;DHT22;880;52.452;8.656;2023-04-25T15:45:33;9.00;99.90
1766;DHT22;880;52.452;8.656;2023-04-25T15:48:03;8.60;99.90
1766;DHT22;880;52.452;8.656;2023-04-25T15:50:30;8.40;99.90
1766;DHT22;880;52.452;8.656;2023-04-25T15:52:58;8.30;99.90
1766;DHT22;880;52.452;8.656;2023-04-25T15:55:26;8.20;99.90
1766;DHT22;880;52.452;8.656;2023-04-25T15:57:53;8.10;99.90
1766;DHT22;880;52.452;8.656;2023-04-25T16:00:20;8.10;99.90
1766;DHT22;880;52.452;8.656;2023-04-25T16:02:48;8.20;99.90
1766;DHT22;880;52.452;8.656;2023-04-25T16:05:16;8.10;99.90
1766;DHT22;880;52.452;8.656;2023-04-25T16:07:44;8.20;99.90
1766;DHT22;880;52.452;8.656;2023-04-25T16:10:13;8.30;99.90
1766;DHT22;880;52.452;8.656;2023-04-25T16:12:45;8.30;99.90
1766;DHT22;880;52.452;8.656;2023-04-25T16:15:16;8.40;99.90
1766;DHT22;880;52.452;8.656;2023-04-25T16:17:43;8.40;99.90
1766;DHT22;880;52.452;8.656;2023-04-25T16:20:11;8.50;99.90
1766;DHT22;880;52.452;8.656;2023-04-25T16:22:40;8.50;99.90
1766;DHT22;880;52.452;8.656;2023-04-25T16:25:09;8.50;99.90
1766;DHT22;880;52.452;8.656;2023-04-25T16:27:37;8.50;99.90
1766;DHT22;880;52.452;8.656;2023-04-25T16:30:09;8.50;99.90
1766;DHT22;880;52.452;8.656;2023-04-25T16:32:37;8.60;99.90
1766;DHT22;880;52.452;8.656;2023-04-25T16:35:08;8.50;99.90
1766;DHT22;880;52.452;8.656;2023-04-25T16:37:35;8.60;99.90
1766;DHT22;880;52.452;8.656;2023-04-25T16:40:59;8.70;99.90
1766;DHT22;880;52.452;8.656;2023-04-25T16:44:05;8.80;99.90
1766;DHT22;880;52.452;8.656;2023-04-25T16:46:33;9.10;99.90
1766;DHT22;880;52.452;8.656;2023-04-25T16:49:00;9.20;99.90
1766;DHT22;880;52.452;8.656;2023-04-25T16:51:27;9.20;99.90
1766;DHT22;880;52.452;8.656;2023-04-25T16:53:55;9.30;99.90
1766;DHT22;880;52.452;8.656;2023-04-25T16:56:22;9.30;99.90
1766;DHT22;880;52.452;8.656;2023-04-25T16:58:50;9.40;99.90
1766;DHT22;880;52.452;8.656;2023-04-25T17:01:18;9.50;99.90
1766;DHT22;880;52.452;8.656;2023-04-25T17:03:47;9.60;99.90
1766;DHT22;880;52.452;8.656;2023-04-25T17:06:14;9.50;99.90
1766;DHT22;880;52.452;8.656;2023-04-25T17:08:43;9.40;99.90